Time;durP1;ratioP1;P1;durP2;ratioP2;P2;SDS_P1;SDS_P2;PMS_P1;PMS_P2;Temp;Humidity;BMP_temperature;BMP_pressure;BME280_temperature;BME280_humidity;BME280_pressure;Samples;Min_cycle;Max_cycle;Signal;HPM_P1;HPM_P2
2022/04/12 00:02:17;;;;;;;1.27;1.23;;;;;;;-143.85;100.00;70650.75;5097218;28;20387;-89
2022/04/12 00:04:43;;;;;;;3.50;1.55;;;;;;;-143.85;100.00;70650.75;5095753;28;20028;-90
2022/04/12 00:07:08;;;;;;;1.17;0.93;;;;;;;-143.85;100.00;70650.75;5096648;28;20046;-88
2022/04/12 00:09:33;;;;;;;2.03;1.08;;;;;;;-143.85;100.00;70650.75;5096109;28;20024;-88
2022/04/12 00:11:59;;;;;;;2.15;1.50;;;;;;;-143.85;100.00;70650.75;5095273;28;20082;-88
2022/04/12 00:14:24;;;;;;;2.13;1.40;;;;;;;-143.85;100.00;70650.75;5096807;28;20039;-88
2022/04/12 00:19:02;;;;;;;0.90;0.90;;;;;;;-143.85;100.00;70650.75;5095555;28;20047;-88
2022/04/12 00:19:35;;;;;;;0.88;0.82;;;;;;;-143.85;100.00;70650.75;5095048;28;20032;-89
2022/04/12 00:22:01;;;;;;;1.13;1.02;;;;;;;-143.85;100.00;70650.75;5095747;28;20046;-89
2022/04/12 00:24:26;;;;;;;3.38;1.13;;;;;;;-143.85;100.00;70650.75;5095336;28;20111;-88
2022/04/12 00:26:52;;;;;;;0.75;0.70;;;;;;;-143.85;100.00;70650.75;5094959;28;20024;-89
2022/04/12 00:29:17;;;;;;;3.30;0.90;;;;;;;-143.85;100.00;70650.75;5095997;28;20024;-89
2022/04/12 00:31:42;;;;;;;1.75;1.45;;;;;;;-143.85;100.00;70650.75;5094851;28;20028;-89
2022/04/12 00:34:08;;;;;;;0.57;0.57;;;;;;;-143.85;100.00;70650.75;5096086;28;20032;-89
2022/04/12 00:36:35;;;;;;;0.57;0.57;;;;;;;-143.85;100.00;70650.75;5094878;28;20028;-88
2022/04/12 00:39:00;;;;;;;1.13;1.08;;;;;;;-143.85;100.00;70650.75;5094688;28;20092;-89
2022/04/12 00:41:35;;;;;;;0.82;0.80;;;;;;;-143.85;100.00;70650.75;5095671;28;20119;-89
2022/04/12 00:44:00;;;;;;;1.50;1.40;;;;;;;-143.85;100.00;70650.75;5094415;28;20036;-89
2022/04/12 00:46:26;;;;;;;2.13;1.52;;;;;;;-143.85;100.00;70650.75;5094652;28;20036;-89
2022/04/12 00:48:51;;;;;;;1.65;1.10;;;;;;;-143.85;100.00;70650.75;5094652;28;20028;-89
2022/04/12 00:51:17;;;;;;;0.63;0.63;;;;;;;-143.85;100.00;70650.75;5094183;28;20026;-90
2022/04/12 00:53:44;;;;;;;0.75;0.75;;;;;;;-143.85;100.00;70650.75;5095803;28;20035;-90
2022/04/12 00:56:09;;;;;;;1.00;1.00;;;;;;;-143.85;100.00;70650.75;5094073;28;20035;-89
2022/04/12 00:58:35;;;;;;;0.60;0.60;;;;;;;-143.85;100.00;70650.75;5093967;28;20024;-89
2022/04/12 01:01:00;;;;;;;1.02;0.90;;;;;;;-143.85;100.00;70650.75;5094186;28;20020;-89
2022/04/12 01:03:26;;;;;;;1.10;1.08;;;;;;;-143.85;100.00;70650.75;5094325;28;20028;-89
2022/04/12 01:05:53;;;;;;;0.40;0.40;;;;;;;-143.85;100.00;70650.75;5095714;28;20020;-88
2022/04/12 01:08:18;;;;;;;1.27;1.05;;;;;;;-143.85;100.00;70650.75;5094229;28;20036;-89
2022/04/12 01:10:45;;;;;;;2.55;1.10;;;;;;;-143.85;100.00;70650.75;5093825;28;20035;-89
2022/04/12 01:13:11;;;;;;;1.48;0.95;;;;;;;-143.85;100.00;70650.75;5094162;28;20059;-89
2022/04/12 01:15:37;;;;;;;1.35;1.25;;;;;;;-143.85;100.00;70650.75;5094745;28;20024;-89
2022/04/12 01:18:03;;;;;;;1.27;1.17;;;;;;;-143.85;100.00;70650.75;5094186;28;20468;-89
2022/04/12 01:20:31;;;;;;;2.17;1.10;;;;;;;-143.85;100.00;70650.75;5093924;28;20117;-89
2022/04/12 01:23:10;;;;;;;0.65;0.63;;;;;;;-143.85;100.00;70650.75;5093810;28;20035;-89
2022/04/12 01:25:39;;;;;;;1.00;0.90;;;;;;;-143.85;100.00;70650.75;5093853;28;20024;-89
2022/04/12 01:28:06;;;;;;;0.60;0.60;;;;;;;-143.85;100.00;70650.75;5094863;28;20089;-89
2022/04/12 01:30:31;;;;;;;0.60;0.45;;;;;;;-143.85;100.00;70650.75;5094468;28;20472;-89
2022/04/12 01:32:57;;;;;;;0.88;0.60;;;;;;;-143.85;100.00;70650.75;5093394;28;20062;-89
2022/04/12 01:35:22;;;;;;;1.38;1.23;;;;;;;-143.85;100.00;70650.75;5093677;28;20028;-89
2022/04/12 01:37:48;;;;;;;0.90;0.90;;;;;;;-143.85;100.00;70650.75;5093528;28;20028;-89
2022/04/12 01:40:13;;;;;;;0.75;0.60;;;;;;;-143.85;100.00;70650.75;5094847;28;20094;-90
2022/04/12 01:42:39;;;;;;;2.58;1.05;;;;;;;-143.85;100.00;70650.75;5094568;28;20040;-89
2022/04/12 01:45:07;;;;;;;0.75;0.63;;;;;;;-143.85;100.00;70650.75;5093458;28;20051;-89
2022/04/12 01:47:32;;;;;;;1.33;1.23;;;;;;;-143.85;100.00;70650.75;5093888;28;20137;-89
2022/04/12 01:49:58;;;;;;;1.25;0.93;;;;;;;-143.85;100.00;70650.75;5093472;28;20483;-89
2022/04/12 01:52:23;;;;;;;2.50;1.00;;;;;;;-143.85;100.00;70650.75;5093417;28;20035;-89
2022/04/12 01:54:49;;;;;;;1.45;0.70;;;;;;;-143.85;100.00;70650.75;5093222;28;20110;-89
2022/04/12 01:57:15;;;;;;;0.75;0.75;;;;;;;-143.85;100.00;70650.75;5093408;28;20043;-90
2022/04/12 01:59:42;;;;;;;1.10;1.00;;;;;;;-143.85;100.00;70650.75;5093012;28;20107;-90
2022/04/12 02:02:08;;;;;;;1.57;1.27;;;;;;;-143.85;100.00;70650.75;5093084;28;20490;-89
2022/04/12 02:04:34;;;;;;;0.45;0.45;;;;;;;-143.85;100.00;70650.75;5093050;28;20472;-89
2022/04/12 02:06:59;;;;;;;0.47;0.47;;;;;;;-143.85;100.00;70650.75;5093475;28;20059;-90
2022/04/12 02:09:25;;;;;;;1.08;0.80;;;;;;;-143.85;100.00;70650.75;5093700;28;20054;-89
2022/04/12 02:11:50;;;;;;;0.93;0.93;;;;;;;-143.85;100.00;70650.75;5093418;28;20392;-91
2022/04/12 02:14:15;;;;;;;1.88;1.27;;;;;;;-143.85;100.00;70650.75;5093876;28;20032;-90
2022/04/12 02:16:41;;;;;;;1.25;1.08;;;;;;;-143.85;100.00;70650.75;5094264;28;20475;-90
2022/04/12 02:19:06;;;;;;;1.80;1.50;;;;;;;-143.85;100.00;70650.75;5092784;28;20028;-89
2022/04/12 02:21:32;;;;;;;2.38;1.35;;;;;;;-143.85;100.00;70650.75;5093897;28;20024;-89
2022/04/12 02:23:57;;;;;;;0.82;0.80;;;;;;;-143.85;100.00;70650.75;5092892;28;20123;-89
2022/04/12 02:26:23;;;;;;;1.00;1.00;;;;;;;-143.85;100.00;70650.75;5092865;28;20024;-89
2022/04/12 02:28:48;;;;;;;1.10;1.00;;;;;;;-143.85;100.00;70650.75;5093946;28;20096;-89
2022/04/12 02:31:13;;;;;;;6.18;2.40;;;;;;;-143.85;100.00;70650.75;5092668;28;20544;-89
2022/04/12 02:33:40;;;;;;;5.07;1.30;;;;;;;-143.85;100.00;70650.75;5094345;28;20028;-89
2022/04/12 02:36:05;;;;;;;0.60;0.60;;;;;;;-143.85;100.00;70650.75;5093714;28;20030;-88
2022/04/12 02:38:31;;;;;;;1.65;1.55;;;;;;;-143.85;100.00;70650.75;5092558;28;20028;-88
2022/04/12 02:40:56;;;;;;;1.52;1.42;;;;;;;-143.85;100.00;70650.75;5092522;28;20055;-88
2022/04/12 02:43:22;;;;;;;0.80;0.80;;;;;;;-143.85;100.00;70650.75;5091789;28;20028;-89
2022/04/12 02:45:47;;;;;;;1.02;0.93;;;;;;;-143.85;100.00;70650.75;5092367;28;20039;-89
2022/04/12 02:48:13;;;;;;;1.55;0.88;;;;;;;-143.85;100.00;70650.75;5092854;28;20031;-89
2022/04/12 02:50:39;;;;;;;2.15;1.35;;;;;;;-143.85;100.00;70650.75;5093551;28;20035;-88
2022/04/12 02:53:05;;;;;;;0.80;0.80;;;;;;;-143.85;100.00;70650.75;5092270;28;20028;-89
2022/04/12 02:55:30;;;;;;;0.60;0.60;;;;;;;-143.85;100.00;70650.75;5093408;28;20028;-88
2022/04/12 02:57:56;;;;;;;1.52;1.42;;;;;;;-143.85;100.00;70650.75;5092238;28;20047;-89
2022/04/12 03:00:21;;;;;;;1.17;1.15;;;;;;;-143.85;100.00;70650.75;5092295;28;20397;-88
2022/04/12 03:02:47;;;;;;;1.23;1.13;;;;;;;-143.85;100.00;70650.75;5092228;28;20490;-89
2022/04/12 03:05:12;;;;;;;1.48;1.15;;;;;;;-143.85;100.00;70650.75;5092347;28;20460;-88
2022/04/12 03:07:38;;;;;;;1.10;1.00;;;;;;;-143.85;100.00;70650.75;5092045;28;20028;-89
2022/04/12 03:10:03;;;;;;;0.82;0.82;;;;;;;-143.85;100.00;70650.75;5092821;28;20035;-89
2022/04/12 03:12:29;;;;;;;2.65;1.50;;;;;;;-143.85;100.00;70650.75;5092194;28;20032;-90
2022/04/12 03:14:54;;;;;;;0.57;0.57;;;;;;;-143.85;100.00;70650.75;5092472;28;20040;-89
2022/04/12 03:17:20;;;;;;;0.75;0.75;;;;;;;-143.85;100.00;70650.75;5092372;28;20471;-89
2022/04/12 03:19:46;;;;;;;1.48;1.35;;;;;;;-143.85;100.00;70650.75;5093186;28;20373;-89
2022/04/12 03:22:12;;;;;;;1.30;1.17;;;;;;;-143.85;100.00;70650.75;5091955;28;20024;-89
2022/04/12 03:24:38;;;;;;;1.48;1.38;;;;;;;-143.85;100.00;70650.75;5092394;28;20063;-89
2022/04/12 03:27:04;;;;;;;1.52;1.42;;;;;;;-143.85;100.00;70650.75;5092534;28;20024;-89
2022/04/12 03:29:30;;;;;;;2.58;1.23;;;;;;;-143.85;100.00;70650.75;5093188;28;20032;-89
2022/04/12 03:31:55;;;;;;;2.55;1.60;;;;;;;-143.85;100.00;70650.75;5091936;28;20028;-89
2022/04/12 03:34:21;;;;;;;1.88;1.00;;;;;;;-143.85;100.00;70650.75;5092141;28;20118;-89
2022/04/12 03:36:46;;;;;;;1.00;0.90;;;;;;;-143.85;100.00;70650.75;5092440;28;20116;-90
2022/04/12 03:39:17;;;;;;;2.00;1.83;;;;;;;-143.85;100.00;70650.75;5092086;28;20092;-89
2022/04/12 03:41:46;;;;;;;1.15;1.13;;;;;;;-143.85;100.00;70650.75;5092861;28;20031;-91
2022/04/12 03:44:13;;;;;;;1.38;1.23;;;;;;;-143.85;100.00;70650.75;5093154;28;20088;-89
2022/04/12 03:46:38;;;;;;;0.77;0.52;;;;;;;-143.85;100.00;70650.75;5091870;28;20101;-89
2022/04/12 03:49:04;;;;;;;1.55;1.45;;;;;;;-143.85;100.00;70650.75;5092886;28;20052;-89
2022/04/12 03:51:30;;;;;;;2.10;1.55;;;;;;;-143.85;100.00;70650.75;5091800;28;20096;-90
2022/04/12 03:53:56;;;;;;;8.13;2.50;;;;;;;-143.85;100.00;70650.75;5091821;28;20098;-88
2022/04/12 03:56:21;;;;;;;2.10;1.05;;;;;;;-143.85;100.00;70650.75;5095309;28;20495;-89
2022/04/12 03:58:47;;;;;;;0.95;0.95;;;;;;;-143.85;100.00;70650.75;5095473;28;20031;-89
2022/04/12 04:01:12;;;;;;;1.55;0.77;;;;;;;-143.85;100.00;70650.75;5095470;28;20028;-90
2022/04/12 04:03:38;;;;;;;0.77;0.77;;;;;;;-143.85;100.00;70650.75;5095393;28;20032;-89
2022/04/12 04:06:04;;;;;;;0.82;0.82;;;;;;;-143.85;100.00;70650.75;5096648;28;20062;-89
2022/04/12 04:08:29;;;;;;;1.33;1.23;;;;;;;-143.85;100.00;70650.75;5095680;28;20114;-89
2022/04/12 04:10:55;;;;;;;1.13;1.13;;;;;;;-143.85;100.00;70650.75;5095755;28;20063;-89
2022/04/12 04:13:20;;;;;;;0.60;0.60;;;;;;;-143.85;100.00;70650.75;5095460;28;20027;-89
2022/04/12 04:15:46;;;;;;;1.58;1.27;;;;;;;-143.85;100.00;70650.75;5096348;28;20050;-89
2022/04/12 04:18:13;;;;;;;4.43;1.58;;;;;;;-143.85;100.00;70650.75;5095187;28;20028;-90
2022/04/12 04:20:39;;;;;;;0.88;0.88;;;;;;;-143.85;100.00;70650.75;5095061;28;20046;-89
2022/04/12 04:23:07;;;;;;;1.50;0.80;;;;;;;-143.85;100.00;70650.75;5095225;28;20534;-88
2022/04/12 04:25:32;;;;;;;;;;;;;;;-143.85;100.00;70650.75;5096793;28;20117;-90
2022/04/12 04:27:58;;;;;;;0.80;0.80;;;;;;;-143.85;100.00;70650.75;5095248;28;19990;-89
2022/04/12 04:30:24;;;;;;;2.25;1.33;;;;;;;-143.85;100.00;70650.75;5095152;28;20395;-90
2022/04/12 04:32:50;;;;;;;1.80;0.80;;;;;;;-143.85;100.00;70650.75;5095621;28;20103;-90
2022/04/12 04:35:16;;;;;;;0.90;0.90;;;;;;;-143.85;100.00;70650.75;5094978;28;20059;-90
2022/04/12 04:37:49;;;;;;;2.40;1.92;;;;;;;-143.85;100.00;70650.75;5095452;28;20052;-90
2022/04/12 04:40:21;;;;;;;1.20;0.88;;;;;;;-143.85;100.00;70650.75;5094167;28;20160;-90
2022/04/12 04:42:49;;;;;;;1.10;0.77;;;;;;;-143.85;100.00;70650.75;5096136;28;20024;-89
2022/04/12 04:45:15;;;;;;;2.47;0.95;;;;;;;-143.85;100.00;70650.75;5094812;28;20032;-89
2022/04/12 04:48:07;;;;;;;2.05;1.65;;;;;;;-143.85;100.00;70650.75;5094897;28;20457;-90
2022/04/12 04:50:33;;;;;;;3.28;1.60;;;;;;;-143.85;100.00;70650.75;5089965;28;20036;-90
2022/04/12 04:53:02;;;;;;;5.00;1.88;;;;;;;-143.85;100.00;70650.75;5094397;28;20032;-89
2022/04/12 04:55:28;;;;;;;2.58;1.27;;;;;;;-143.85;100.00;70650.75;5094325;28;20063;-89
2022/04/12 04:57:55;;;;;;;3.53;1.88;;;;;;;-143.85;100.00;70650.75;5094352;28;20024;-90
2022/04/12 05:00:22;;;;;;;2.83;1.10;;;;;;;-143.85;100.00;70650.75;5094317;28;20059;-89
2022/04/12 05:02:52;;;;;;;3.25;2.20;;;;;;;-143.85;100.00;70650.75;5094311;28;20032;-88
2022/04/12 05:05:19;;;;;;;2.60;1.42;;;;;;;-143.85;100.00;70650.75;5094829;28;20032;-89
2022/04/12 05:07:47;;;;;;;6.20;1.58;;;;;;;-143.85;100.00;70650.75;5093623;28;20031;-88
2022/04/12 05:10:15;;;;;;;0.90;0.38;;;;;;;-143.85;100.00;70650.75;5094810;28;20032;-89
2022/04/12 05:12:41;;;;;;;0.68;0.68;;;;;;;-143.85;100.00;70650.75;5095230;28;20027;-90
2022/04/12 05:15:07;;;;;;;1.55;1.42;;;;;;;-143.85;100.00;70650.75;5093924;28;20115;-90
2022/04/12 05:17:32;;;;;;;1.33;0.75;;;;;;;-143.85;100.00;70650.75;5094736;28;20016;-89
2022/04/12 05:19:58;;;;;;;0.77;0.77;;;;;;;-143.85;100.00;70650.75;5094079;28;20020;-85
2022/04/12 05:22:25;;;;;;;3.85;2.13;;;;;;;-143.85;100.00;70650.75;5093897;28;20050;-84
2022/04/12 05:24:51;;;;;;;1.80;1.60;;;;;;;-143.85;100.00;70650.75;5093611;28;20137;-85
2022/04/12 05:27:17;;;;;;;3.85;1.42;;;;;;;-143.85;100.00;70650.75;5094071;28;20103;-85
2022/04/12 05:29:43;;;;;;;1.23;1.13;;;;;;;-143.85;100.00;70650.75;5093700;28;20028;-85
2022/04/12 05:32:10;;;;;;;0.57;0.57;;;;;;;-143.85;100.00;70650.75;5094746;28;20047;-84
2022/04/12 05:34:36;;;;;;;3.50;1.15;;;;;;;-143.85;100.00;70650.75;5093399;28;20085;-83
2022/04/12 05:37:03;;;;;;;1.15;0.82;;;;;;;-143.85;100.00;70650.75;5094511;28;20020;-84
2022/04/12 05:39:28;;;;;;;1.55;0.95;;;;;;;-143.85;100.00;70650.75;5093248;28;20122;-84
2022/04/12 05:41:54;;;;;;;7.88;1.23;;;;;;;-143.85;100.00;70650.75;5093574;28;20052;-85
2022/04/12 05:44:20;;;;;;;2.08;0.98;;;;;;;-143.85;100.00;70650.75;5094511;28;20050;-85
2022/04/12 05:46:46;;;;;;;0.80;0.80;;;;;;;-143.85;100.00;70650.75;5094161;28;20050;-85
2022/04/12 05:49:11;;;;;;;2.30;0.88;;;;;;;-143.85;100.00;70650.75;5092971;28;20032;-84
2022/04/12 05:51:36;;;;;;;1.23;0.73;;;;;;;-143.85;100.00;70650.75;5092870;28;20047;-83
2022/04/12 05:54:02;;;;;;;1.75;0.70;;;;;;;-143.85;100.00;70650.75;5094177;28;20103;-83
2022/04/12 05:56:27;;;;;;;0.65;0.65;;;;;;;-143.85;100.00;70650.75;5092698;28;20020;-85
2022/04/12 05:58:53;;;;;;;1.65;0.75;;;;;;;-143.85;100.00;70650.75;5092876;28;20024;-84
2022/04/12 06:01:18;;;;;;;7.07;3.63;;;;;;;-143.85;100.00;70650.75;5092940;28;20028;-83
2022/04/12 06:03:44;;;;;;;0.52;0.50;;;;;;;-143.85;100.00;70650.75;5092681;28;20032;-84
2022/04/12 06:06:09;;;;;;;1.42;1.33;;;;;;;-143.85;100.00;70650.75;5092849;28;20024;-83
2022/04/12 06:08:35;;;;;;;1.83;0.82;;;;;;;-143.85;100.00;70650.75;5092446;28;20123;-82
2022/04/12 06:11:00;;;;;;;1.50;1.13;;;;;;;-143.85;100.00;70650.75;5092512;28;20125;-84
2022/04/12 06:13:26;;;;;;;1.75;0.52;;;;;;;-143.85;100.00;70650.75;5092661;28;20036;-84
2022/04/12 06:15:51;;;;;;;0.40;0.40;;;;;;;-143.85;100.00;70650.75;5092465;28;20051;-84
2022/04/12 06:18:17;;;;;;;0.55;0.50;;;;;;;-143.85;100.00;70650.75;5092306;28;20051;-81
2022/04/12 06:20:42;;;;;;;0.52;0.50;;;;;;;-143.85;100.00;70650.75;5093316;28;20061;-84
2022/04/12 06:23:08;;;;;;;2.03;0.65;;;;;;;-143.85;100.00;70650.75;5092973;28;20115;-86
2022/04/12 06:25:34;;;;;;;1.63;0.85;;;;;;;-143.85;100.00;70650.75;5092655;28;20055;-88
2022/04/12 06:27:59;;;;;;;0.60;0.60;;;;;;;-143.85;100.00;70650.75;5093301;28;20047;-88
2022/04/12 06:30:30;;;;;;;0.77;0.75;;;;;;;-143.85;100.00;70650.75;5092244;28;20479;-84
2022/04/12 06:32:56;;;;;;;0.88;0.70;;;;;;;-143.85;100.00;70650.75;5092014;28;20032;-83
2022/04/12 06:35:22;;;;;;;0.60;0.52;;;;;;;-143.85;100.00;70650.75;5093088;28;20020;-83
2022/04/12 06:37:53;;;;;;;1.25;0.82;;;;;;;-143.85;100.00;70650.75;5092992;28;20086;-82
2022/04/12 06:40:19;;;;;;;1.08;0.55;;;;;;;-143.85;100.00;70650.75;5091659;28;20056;-85
2022/04/12 06:42:49;;;;;;;0.73;0.70;;;;;;;-143.85;100.00;70650.75;5093893;28;20056;-84
2022/04/12 06:45:15;;;;;;;1.48;1.20;;;;;;;-143.85;100.00;70650.75;5091695;28;20028;-86
2022/04/12 06:47:42;;;;;;;0.93;0.88;;;;;;;-143.85;100.00;70650.75;5091905;28;20024;-85
2022/04/12 06:50:11;;;;;;;1.80;0.50;;;;;;;-143.85;100.00;70650.75;5091959;28;20043;-85
2022/04/12 06:52:38;;;;;;;1.40;0.57;;;;;;;-143.85;100.00;70650.75;5091479;28;20085;-86
2022/04/12 06:55:04;;;;;;;4.95;2.58;;;;;;;-143.85;100.00;70650.75;5091892;28;20031;-82
2022/04/12 06:57:34;;;;;;;4.03;1.02;;;;;;;-143.85;100.00;70650.75;5092435;28;20020;-85
2022/04/12 07:00:00;;;;;;;1.85;0.93;;;;;;;-143.85;100.00;70650.75;5092204;28;20162;-84
2022/04/12 07:02:26;;;;;;;2.70;0.77;;;;;;;-143.85;100.00;70650.75;5092132;28;20496;-84
2022/04/12 07:04:51;;;;;;;1.48;1.00;;;;;;;-143.85;100.00;70650.75;5092216;28;20070;-84
2022/04/12 07:07:17;;;;;;;5.53;1.90;;;;;;;-143.85;100.00;70650.75;5093299;28;20538;-84
2022/04/12 07:09:42;;;;;;;45.85;15.18;;;;;;;-143.85;100.00;70650.75;5091967;28;20020;-84
2022/04/12 07:12:08;;;;;;;5.32;2.58;;;;;;;-143.85;100.00;70650.75;5092383;28;20081;-84
2022/04/12 07:14:33;;;;;;;21.60;7.05;;;;;;;-143.85;100.00;70650.75;5093346;28;20083;-86
2022/04/12 07:16:59;;;;;;;75.68;24.70;;;;;;;-143.85;100.00;70650.75;5092719;28;20021;-84
2022/04/12 07:19:25;;;;;;;44.28;12.25;;;;;;;-143.85;100.00;70650.75;5092414;28;20023;-84
2022/04/12 07:21:51;;;;;;;7.28;4.22;;;;;;;-143.85;100.00;70650.75;5093173;28;20016;-84
2022/04/12 07:24:16;;;;;;;24.17;9.45;;;;;;;-143.85;100.00;70650.75;5093226;28;20118;-84
2022/04/12 07:26:42;;;;;;;34.88;14.88;;;;;;;-143.85;100.00;70650.75;5092134;28;20024;-84
2022/04/12 07:29:07;;;;;;;1.48;0.73;;;;;;;-143.85;100.00;70650.75;5092618;28;20379;-84
2022/04/12 07:31:33;;;;;;;15.93;5.78;;;;;;;-143.85;100.00;70650.75;5096061;28;20032;-85
2022/04/12 07:33:59;;;;;;;68.88;24.02;;;;;;;-143.85;100.00;70650.75;5096270;28;20069;-85
2022/04/12 07:36:25;;;;;;;2.92;1.85;;;;;;;-143.85;100.00;70650.75;5097066;28;20016;-85
2022/04/12 07:38:50;;;;;;;1.77;0.90;;;;;;;-143.85;100.00;70650.75;5095882;28;20023;-84
2022/04/12 07:41:17;;;;;;;0.52;0.52;;;;;;;-143.85;100.00;70650.75;5095963;28;20445;-84
2022/04/12 07:43:45;;;;;;;0.40;0.40;;;;;;;-143.85;100.00;70650.75;5095798;28;20456;-84
2022/04/12 07:46:11;;;;;;;;;;;;;;;-143.85;100.00;70650.75;5096040;28;20059;-84
2022/04/12 07:48:36;;;;;;;24.40;8.80;;;;;;;-143.85;100.00;70650.75;5096075;28;19911;-85
2022/04/12 07:51:02;;;;;;;1.23;1.13;;;;;;;-143.85;100.00;70650.75;5095535;28;20114;-84
2022/04/12 07:53:27;;;;;;;0.52;0.52;;;;;;;-143.85;100.00;70650.75;5095502;28;20471;-85
2022/04/12 07:55:52;;;;;;;17.90;7.22;;;;;;;-143.85;100.00;70650.75;5095773;28;20070;-85
2022/04/12 07:58:18;;;;;;;7.90;2.55;;;;;;;-143.85;100.00;70650.75;5095442;28;20024;-86
2022/04/12 08:00:43;;;;;;;1.13;0.57;;;;;;;-143.85;100.00;70650.75;5095641;28;20058;-85
2022/04/12 08:03:09;;;;;;;9.70;1.60;;;;;;;-143.85;100.00;70650.75;5096811;28;20073;-85
2022/04/12 08:05:35;;;;;;;0.47;0.47;;;;;;;-143.85;100.00;70650.75;5096630;28;20551;-85
2022/04/12 08:08:01;;;;;;;0.60;0.55;;;;;;;-143.85;100.00;70650.75;5095227;28;20015;-86
2022/04/12 08:10:27;;;;;;;0.73;0.73;;;;;;;-143.85;100.00;70650.75;5095283;28;20050;-85
2022/04/12 08:12:52;;;;;;;0.70;0.70;;;;;;;-143.85;100.00;70650.75;5095192;28;20020;-85
2022/04/12 08:15:18;;;;;;;1.60;0.80;;;;;;;-143.85;100.00;70650.75;5095150;28;20020;-85
2022/04/12 08:17:44;;;;;;;1.10;0.73;;;;;;;-143.85;100.00;70650.75;5096338;28;20046;-86
2022/04/12 08:20:13;;;;;;;0.57;0.57;;;;;;;-143.85;100.00;70650.75;5095386;28;20031;-85
2022/04/12 08:22:38;;;;;;;;;;;;;;;-143.85;100.00;70650.75;5095506;28;20452;-85
2022/04/12 08:25:04;;;;;;;2.38;0.93;;;;;;;-143.85;100.00;70650.75;5095034;28;19908;-86
2022/04/12 08:27:30;;;;;;;8.52;3.10;;;;;;;-143.85;100.00;70650.75;5094953;28;20129;-86
2022/04/12 08:29:56;;;;;;;0.70;0.55;;;;;;;-143.85;100.00;70650.75;5094938;28;20027;-85
2022/04/12 08:32:21;;;;;;;1.20;0.50;;;;;;;-143.85;100.00;70650.75;5094825;28;20027;-85
2022/04/12 08:34:47;;;;;;;0.77;0.63;;;;;;;-143.85;100.00;70650.75;5095009;28;20017;-86
2022/04/12 08:37:13;;;;;;;0.70;0.70;;;;;;;-143.85;100.00;70650.75;5094962;28;20024;-85
2022/04/12 08:39:39;;;;;;;3.38;1.30;;;;;;;-143.85;100.00;70650.75;5094276;28;20128;-85
2022/04/12 08:42:05;;;;;;;2.17;1.58;;;;;;;-143.85;100.00;70650.75;5093712;28;20028;-85
2022/04/12 08:44:33;;;;;;;6.68;3.22;;;;;;;-143.85;100.00;70650.75;5094530;28;20032;-85
2022/04/12 08:47:03;;;;;;;0.75;0.57;;;;;;;-143.85;100.00;70650.75;5094277;28;20012;-85
2022/04/12 08:49:28;;;;;;;0.30;0.30;;;;;;;-143.85;100.00;70650.75;5094674;28;20031;-86
2022/04/12 08:51:54;;;;;;;15.68;5.63;;;;;;;-143.85;100.00;70650.75;5094876;28;20024;-86
2022/04/12 08:54:20;;;;;;;17.60;3.78;;;;;;;-143.85;100.00;70650.75;5095679;28;20379;-85
2022/04/12 08:56:48;;;;;;;8.55;1.27;;;;;;;-143.85;100.00;70650.75;5095591;28;20039;-84
2022/04/12 08:59:15;;;;;;;1.88;0.60;;;;;;;-143.85;100.00;70650.75;5094536;28;20024;-85
2022/04/12 09:01:43;;;;;;;0.45;0.45;;;;;;;-143.85;100.00;70650.75;5094536;28;20020;-85
2022/04/12 09:04:10;;;;;;;0.40;0.40;;;;;;;-143.85;100.00;70650.75;5093719;28;20034;-85
2022/04/12 09:06:50;;;;;;;15.80;5.95;;;;;;;-143.85;100.00;70650.75;5094169;28;20032;-86
2022/04/12 09:09:18;;;;;;;20.33;7.07;;;;;;;-143.85;100.00;70650.75;5095261;28;20024;-85
2022/04/12 09:11:58;;;;;;;0.80;0.80;;;;;;;-143.85;100.00;70650.75;5094879;28;20505;-85
2022/04/12 09:14:25;;;;;;;0.40;0.40;;;;;;;-143.85;100.00;70650.75;5094525;28;20028;-84
2022/04/12 09:16:52;;;;;;;0.90;0.40;;;;;;;-143.85;100.00;70650.75;5095046;28;20049;-85
2022/04/12 09:19:46;;;;;;;0.70;0.70;;;;;;;-143.85;100.00;70650.75;5094930;28;20476;-84
2022/04/12 09:22:17;;;;;;;1.02;0.70;;;;;;;-143.85;100.00;70650.75;5094073;28;20024;-85
2022/04/12 09:24:47;;;;;;;19.40;8.15;;;;;;;-143.85;100.00;70650.75;5094027;28;20028;-85
2022/04/12 09:27:15;;;;;;;0.77;0.75;;;;;;;-143.85;100.00;70650.75;5093716;28;20038;-85
2022/04/12 09:29:50;;;;;;;0.70;0.57;;;;;;;-143.85;100.00;70650.75;5093751;28;20032;-85
2022/04/12 09:32:19;;;;;;;0.50;0.50;;;;;;;-143.85;100.00;70650.75;5094281;28;20040;-84
2022/04/12 09:34:45;;;;;;;2.35;1.00;;;;;;;-143.85;100.00;70650.75;5094760;28;20107;-85
2022/04/12 09:37:28;;;;;;;19.02;7.90;;;;;;;-143.85;100.00;70650.75;5093313;28;20028;-84
2022/04/12 09:40:04;;;;;;;0.93;0.93;;;;;;;-143.85;100.00;70650.75;5093447;28;20067;-85
2022/04/12 09:42:43;;;;;;;0.88;0.70;;;;;;;-143.85;100.00;70650.75;5093968;28;20094;-85
2022/04/12 09:45:17;;;;;;;1.23;0.85;;;;;;;-143.85;100.00;70650.75;5093929;28;20036;-85
2022/04/12 09:47:44;;;;;;;6.63;2.72;;;;;;;-143.85;100.00;70650.75;5094768;28;20024;-85
2022/04/12 09:50:10;;;;;;;1.37;0.90;;;;;;;-143.85;100.00;70650.75;5093493;28;20506;-85
2022/04/12 09:52:36;;;;;;;1.48;0.70;;;;;;;-143.85;100.00;70650.75;5093155;28;20031;-85
2022/04/12 09:55:04;;;;;;;2.00;1.38;;;;;;;-143.85;100.00;70650.75;5094372;28;20028;-86
2022/04/12 09:57:30;;;;;;;0.98;0.75;;;;;;;-143.85;100.00;70650.75;5093000;28;20491;-85
2022/04/12 09:59:57;;;;;;;3.10;1.15;;;;;;;-143.85;100.00;70650.75;5093212;28;20036;-84
2022/04/12 10:02:24;;;;;;;1.05;0.82;;;;;;;-143.85;100.00;70650.75;5094500;28;20060;-84
2022/04/12 10:04:54;;;;;;;0.50;0.50;;;;;;;-143.85;100.00;70650.75;5094370;28;20024;-84
2022/04/12 10:07:21;;;;;;;27.65;8.05;;;;;;;-143.85;100.00;70650.75;5093369;28;20071;-85
2022/04/12 10:09:52;;;;;;;6.68;2.80;;;;;;;-143.85;100.00;70650.75;5092653;28;20107;-84
2022/04/12 10:12:18;;;;;;;2.05;1.20;;;;;;;-143.85;100.00;70650.75;5093193;28;20036;-85
2022/04/12 10:14:45;;;;;;;2.92;1.63;;;;;;;-143.85;100.00;70650.75;5093335;28;20028;-85
2022/04/12 10:17:14;;;;;;;0.40;0.40;;;;;;;-143.85;100.00;70650.75;5093259;28;20502;-85
2022/04/12 10:19:41;;;;;;;1.10;0.68;;;;;;;-143.85;100.00;70650.75;5093970;28;20024;-88
2022/04/12 10:22:07;;;;;;;2.03;0.50;;;;;;;-143.85;100.00;70650.75;5092752;28;20111;-85
2022/04/12 10:24:34;;;;;;;5.85;3.10;;;;;;;-143.85;100.00;70650.75;5092870;28;20047;-85
2022/04/12 10:27:00;;;;;;;0.60;0.60;;;;;;;-143.85;100.00;70650.75;5094212;28;20472;-85
2022/04/12 10:29:25;;;;;;;0.68;0.68;;;;;;;-143.85;100.00;70650.75;5092631;28;20483;-85
2022/04/12 10:31:59;;;;;;;11.85;3.38;;;;;;;-143.85;100.00;70650.75;5092647;28;20035;-85
2022/04/12 10:34:25;;;;;;;1.10;0.98;;;;;;;-143.85;100.00;70650.75;5092768;28;20032;-84
2022/04/12 10:37:05;;;;;;;0.70;0.60;;;;;;;-143.85;100.00;70650.75;5092646;28;20385;-85
2022/04/12 10:39:45;;;;;;;0.60;0.60;;;;;;;-143.85;100.00;70650.75;5092410;28;20048;-85
2022/04/12 10:42:14;;;;;;;5.25;0.70;;;;;;;-143.85;100.00;70650.75;5092449;28;20024;-85
2022/04/12 10:44:45;;;;;;;1.45;0.75;;;;;;;-143.85;100.00;70650.75;5092488;28;20039;-85
2022/04/12 10:47:24;;;;;;;0.47;0.45;;;;;;;-143.85;100.00;70650.75;5093529;28;20025;-85
2022/04/12 10:50:01;;;;;;;1.88;0.85;;;;;;;-143.85;100.00;70650.75;5092864;28;20028;-86
2022/04/12 10:52:42;;;;;;;0.50;0.50;;;;;;;-143.85;100.00;70650.75;5093032;28;20032;-86
2022/04/12 10:55:11;;;;;;;5.68;1.08;;;;;;;-143.85;100.00;70650.75;5092316;28;20444;-87
2022/04/12 10:57:36;;;;;;;2.92;1.52;;;;;;;-143.85;100.00;70650.75;5093265;28;20028;-86
2022/04/12 11:00:19;;;;;;;1.30;0.80;;;;;;;-143.85;100.00;70650.75;5092838;28;20032;-87
2022/04/12 11:02:56;;;;;;;1.30;0.95;;;;;;;-143.85;100.00;70650.75;5091785;28;20088;-86
2022/04/12 11:05:40;;;;;;;4.78;1.38;;;;;;;-143.85;100.00;70650.75;5091982;28;20031;-87
2022/04/12 11:08:14;;;;;;;8.25;2.70;;;;;;;-143.85;100.00;70650.75;5091679;28;20118;-87
2022/04/12 11:11:00;;;;;;;2.70;1.33;;;;;;;-143.85;100.00;70650.75;5091851;28;20027;-88